»·PEaware :: DCM1013 KLAX-KLAS

DCM1013 :: KLAX-KLAS

FLIGHT INFORMATION

Flight Status: Arrived
Operator: Unknown
More flights by this operator :: More flights under this callsign
Pilot: Joe C. (19058)
Aircraft: BOMBARDIER BD-100 CHALLENGER 300
(CL30)
More flights by this aircraft type
Origin: KLAX Los Angeles Intl
United States
Destination: KLAS McCarran Intl
United States
More flights between these airports :: More routes between these airports
Route: +ORCKA3 MISEN KEPEC6
File this flight plan on PilotEdge
Remarks:
Altitude:
(Current/Filed)
37,000ft
Speed:
(Current/Filed)
180kts
Departed: 14-Sep-18 03:55 PM
Arrived: 14-Sep-18 04:45 PM
Distance/Time
Traveled:
205nm/0:49
Distance/Time
To Go:
Arrived

Flight Plot

Page will automatically refresh every two minutes.

Flight plan parsing failed; only flown route is shown


Map Options




Map Legend


Flown Route
Filed Route
Departure Airport
Arrival Airport
Navaid (VOR, NDB)
Fix

Horizontal Profiles

Position Reports

Time Latitude Longitude Heading Altitude Ground
Speed
14-Sep-18 15:29 33.933730 -118.394784 89 107ft 0kts
14-Sep-18 15:30 33.933730 -118.394784 89 107ft 0kts
14-Sep-18 15:31 33.933730 -118.394784 89 107ft 0kts
14-Sep-18 15:32 33.933730 -118.394784 89 107ft 0kts
14-Sep-18 15:33 33.933730 -118.394784 89 107ft 0kts
14-Sep-18 15:34 33.933730 -118.394784 89 107ft 0kts
14-Sep-18 15:35 33.933730 -118.394784 89 107ft 0kts
14-Sep-18 15:36 33.933730 -118.394784 89 107ft 0kts
14-Sep-18 15:37 33.933730 -118.394784 89 107ft 0kts
14-Sep-18 15:38 33.933730 -118.394784 89 107ft 0kts
14-Sep-18 15:39 33.933730 -118.394784 89 107ft 0kts
14-Sep-18 15:40 33.933730 -118.394784 89 107ft 0kts
14-Sep-18 15:41 33.933730 -118.394784 89 107ft 0kts
14-Sep-18 15:42 33.933730 -118.394784 89 107ft 0kts
14-Sep-18 15:43 33.933730 -118.394784 89 107ft 0kts
14-Sep-18 15:44 33.933730 -118.394784 89 107ft 0kts
14-Sep-18 15:45 33.933730 -118.394784 89 107ft 0kts
14-Sep-18 15:46 33.933730 -118.394784 89 107ft 0kts
14-Sep-18 15:47 33.933730 -118.394784 89 107ft 0kts
14-Sep-18 15:48 33.933730 -118.394784 89 107ft 0kts
14-Sep-18 15:49 33.933730 -118.394784 89 107ft 0kts
14-Sep-18 15:50 33.933730 -118.394784 89 107ft 0kts
14-Sep-18 15:51 33.933870 -118.394584 27 107ft 0kts
14-Sep-18 15:52 33.933870 -118.394584 27 107ft 0kts
14-Sep-18 15:53 33.935169 -118.392248 82 105ft 25kts
14-Sep-18 15:54 33.935999 -118.384027 83 100ft 23kts
14-Sep-18 15:55 33.936330 -118.382866 31 98ft 0kts
14-Sep-18 15:56 33.936364 -118.382842 28 98ft 5kts
14-Sep-18 15:57 33.934552 -118.410283 261 916ft 180kts
14-Sep-18 15:58 33.915237 -118.471734 248 3364ft 207kts
14-Sep-18 15:59 33.892427 -118.541899 248 5311ft 249kts
14-Sep-18 16:00 33.904310 -118.620138 339 7525ft 310kts
14-Sep-18 16:01 33.956806 -118.564561 105 12497ft 308kts
14-Sep-18 16:02 33.937383 -118.461612 92 14989ft 338kts
14-Sep-18 16:03 33.982315 -118.352508 59 15008ft 392kts
14-Sep-18 16:04 34.040891 -118.244111 57 14995ft 378kts
14-Sep-18 16:05 34.099889 -118.138616 57 18699ft 382kts
14-Sep-18 16:06 34.160625 -118.030589 57 21501ft 402kts
14-Sep-18 16:07 34.224607 -117.916732 57 23987ft 419kts
14-Sep-18 16:08 34.290959 -117.798339 58 26170ft 435kts
14-Sep-18 16:09 34.360237 -117.675949 56 28187ft 448kts
14-Sep-18 16:10 34.433814 -117.552437 56 29970ft 463kts
14-Sep-18 16:11 34.509921 -117.424494 55 31557ft 476kts
14-Sep-18 16:12 34.587034 -117.294438 56 32960ft 488kts
14-Sep-18 16:13 34.666272 -117.160334 56 35066ft 476kts
14-Sep-18 16:14 34.741026 -117.033281 56 36746ft 473kts
14-Sep-18 16:15 34.817503 -116.902880 55 34556ft 467kts
14-Sep-18 16:16 34.891366 -116.776520 55 31877ft 452kts
14-Sep-18 16:17 34.963366 -116.650655 57 29189ft 455kts
14-Sep-18 16:18 35.034288 -116.524975 57 26332ft 451kts
14-Sep-18 16:19 35.106208 -116.402259 48 23911ft 442kts
14-Sep-18 16:20 35.186964 -116.298682 48 23885ft 417kts
14-Sep-18 16:21 35.267560 -116.196951 47 23887ft 417kts
14-Sep-18 16:22 35.347980 -116.095599 47 22228ft 403kts
14-Sep-18 16:23 35.424917 -115.998414 47 19739ft 392kts
14-Sep-18 16:24 35.498814 -115.904833 47 17277ft 374kts
14-Sep-18 16:25 35.567822 -115.817221 47 15260ft 341kts
14-Sep-18 16:26 35.631567 -115.736053 47 13267ft 328kts
14-Sep-18 16:27 35.694960 -115.655149 47 13056ft 330kts
14-Sep-18 16:28 35.765299 -115.585178 8 13071ft 338kts
14-Sep-18 16:29 35.860262 -115.572738 3 13056ft 349kts
14-Sep-18 16:30 35.951838 -115.554720 41 13032ft 321kts
14-Sep-18 16:31 35.997594 -115.460189 66 12260ft 316kts
14-Sep-18 16:32 36.024940 -115.367213 94 11019ft 254kts
14-Sep-18 16:33 36.021662 -115.274773 97 9665ft 281kts
14-Sep-18 16:34 36.016322 -115.180784 97 8601ft 268kts
14-Sep-18 16:35 36.010921 -115.094392 98 8442ft 248kts
14-Sep-18 16:36 36.005906 -115.008339 97 8426ft 248kts
14-Sep-18 16:37 36.000673 -114.919981 97 7028ft 272kts
14-Sep-18 16:38 35.995877 -114.835093 97 5271ft 224kts
14-Sep-18 16:39 36.026138 -114.786989 336 5019ft 232kts
14-Sep-18 16:40 36.057647 -114.853356 290 5019ft 232kts
14-Sep-18 16:41 36.073326 -114.919280 265 5016ft 174kts
14-Sep-18 16:42 36.073566 -114.976792 264 4412ft 146kts
14-Sep-18 16:43 36.073633 -115.021889 263 3729ft 128kts
14-Sep-18 16:44 36.073659 -115.067385 263 3013ft 128kts
14-Sep-18 16:45 36.073740 -115.108851 264 2369ft 116kts
14-Sep-18 16:46 36.073735 -115.143143 280 2093ft 47kts
14-Sep-18 16:47 36.074545 -115.145538 301 2101ft 0kts

Navigation Log

Ident Type
Flight plan parsing failed, navigation log unavailable